Time;durP1;ratioP1;P1;durP2;ratioP2;P2;SDS_P1;SDS_P2;PMS_P1;PMS_P2;Temp;Humidity;BMP_temperature;BMP_pressure;BME280_temperature;BME280_humidity;BME280_pressure;Samples;Min_cycle;Max_cycle;Signal;HPM_P1;HPM_P2
2023/12/26 00:01:06;;;;;;;5.30;3.73;;;;;;;7.41;100.00;99800.44;7370222;19;20395;-40
2023/12/26 00:03:38;;;;;;;5.00;2.60;;;;;;;7.43;100.00;99797.91;7392310;19;20947;-39
2023/12/26 00:06:09;;;;;;;8.67;3.73;;;;;;;7.44;100.00;99809.94;7368914;19;20792;-40
2023/12/26 00:08:38;;;;;;;6.77;4.10;;;;;;;7.45;100.00;99800.53;7391294;19;20786;-40
2023/12/26 00:11:08;;;;;;;6.97;4.20;;;;;;;7.46;100.00;99794.56;7368920;19;20423;-40
2023/12/26 00:13:39;;;;;;;8.03;2.63;;;;;;;7.45;100.00;99797.97;7391121;19;20792;-41
2023/12/26 00:16:09;;;;;;;7.10;4.00;;;;;;;7.45;100.00;99791.16;7369742;19;20407;-39
2023/12/26 00:18:42;;;;;;;8.07;3.80;;;;;;;7.49;100.00;99794.72;7391631;19;20407;-42
2023/12/26 00:21:12;;;;;;;9.97;3.37;;;;;;;7.49;100.00;99787.00;7370234;19;20470;-40
2023/12/26 00:23:42;;;;;;;14.43;3.83;;;;;;;7.48;100.00;99780.97;7392895;19;20411;-41
2023/12/26 00:26:12;;;;;;;9.83;3.20;;;;;;;7.46;100.00;99795.47;7369604;19;21870;-41
2023/12/26 00:28:41;;;;;;;3.60;2.10;;;;;;;7.46;100.00;99792.00;7390528;19;20412;-41
2023/12/26 00:31:11;;;;;;;5.20;1.90;;;;;;;7.43;100.00;99795.31;7370539;19;20890;-41
2023/12/26 00:33:44;;;;;;;6.30;2.57;;;;;;;7.42;100.00;99791.91;7391513;19;20403;-42
2023/12/26 00:36:17;;;;;;;6.73;3.47;;;;;;;7.42;100.00;99785.88;7368940;19;20427;-40
2023/12/26 00:38:48;;;;;;;7.03;2.77;;;;;;;7.42;100.00;99788.44;7390916;19;20491;-41
2023/12/26 00:41:18;;;;;;;5.60;2.07;;;;;;;7.37;100.00;99793.41;7368891;19;20411;-41
2023/12/26 00:43:48;;;;;;;3.73;1.57;;;;;;;7.33;100.00;99791.53;7391706;19;20403;-40
2023/12/26 00:46:18;;;;;;;5.10;1.90;;;;;;;7.34;100.00;99783.00;7367860;19;20764;-40
2023/12/26 00:48:50;;;;;;;2.53;1.40;;;;;;;7.32;100.00;99786.34;7390254;19;20407;-40
2023/12/26 00:51:20;;;;;;;8.00;1.80;;;;;;;7.29;100.00;99775.13;7370744;19;20429;-41
2023/12/26 00:53:50;;;;;;;3.23;1.20;;;;;;;7.28;100.00;99782.78;7392866;19;20489;-39
2023/12/26 00:56:21;;;;;;;3.93;1.40;;;;;;;7.25;100.00;99795.50;7369176;19;20411;-39
2023/12/26 00:58:50;;;;;;;6.70;1.47;;;;;;;7.22;100.00;99813.34;7390152;19;20403;-40
2023/12/26 01:01:20;;;;;;;1.67;1.00;;;;;;;7.21;100.00;99803.88;7365896;19;20391;-39
2023/12/26 01:03:53;;;;;;;3.40;1.10;;;;;;;7.20;100.00;99804.69;7390032;19;21402;-42
2023/12/26 01:06:23;;;;;;;1.63;0.63;;;;;;;7.19;100.00;99808.06;7367816;19;20403;-42
2023/12/26 01:08:52;;;;;;;3.53;1.37;;;;;;;7.19;100.00;99806.41;7389557;19;20415;-41
2023/12/26 01:11:22;;;;;;;3.90;1.60;;;;;;;7.20;100.00;99794.41;7367113;19;20391;-41
2023/12/26 01:13:52;;;;;;;3.63;1.30;;;;;;;7.18;100.00;99816.59;7390351;19;20812;-40
2023/12/26 01:16:25;;;;;;;6.20;0.93;;;;;;;7.15;100.00;99823.34;7368135;19;20431;-43
2023/12/26 01:18:57;;;;;;;4.40;1.30;;;;;;;7.13;100.00;99831.81;7389840;19;20474;-40
2023/12/26 01:21:28;;;;;;;3.07;1.30;;;;;;;7.13;100.00;99832.66;7368820;19;20400;-39
2023/12/26 01:23:58;;;;;;;5.70;1.10;;;;;;;7.12;100.00;99823.22;7392947;19;20411;-41
2023/12/26 01:26:30;;;;;;;4.63;1.53;;;;;;;7.12;100.00;99820.66;7375839;19;20770;-42
2023/12/26 01:29:00;;;;;;;2.47;1.20;;;;;;;7.09;100.00;99812.84;7396415;19;20426;-41
2023/12/26 01:31:31;;;;;;;3.93;1.50;;;;;;;7.08;100.00;99793.09;7375181;19;20958;-40
2023/12/26 01:34:03;;;;;;;3.10;1.30;;;;;;;7.09;100.00;99778.59;7397035;19;20407;-43
2023/12/26 01:36:33;;;;;;;1.80;1.07;;;;;;;7.09;100.00;99771.81;7375978;19;20422;-42
2023/12/26 01:39:08;;;;;;;2.57;1.20;;;;;;;7.10;100.00;99760.72;7396375;19;20467;-40
2023/12/26 01:41:37;;;;;;;2.13;0.70;;;;;;;7.11;100.00;99749.63;7373520;19;20439;-39
2023/12/26 01:44:08;;;;;;;5.37;1.53;;;;;;;7.13;100.00;99742.00;7396481;19;20415;-40
2023/12/26 01:46:38;;;;;;;4.70;1.10;;;;;;;7.14;100.00;99743.75;7371408;19;20419;-40
2023/12/26 01:49:11;;;;;;;3.50;1.30;;;;;;;7.15;100.00;99731.00;7396130;19;20404;-40
2023/12/26 01:51:42;;;;;;;4.73;1.30;;;;;;;7.13;100.00;99732.59;7373709;19;20415;-40
2023/12/26 01:54:12;;;;;;;3.03;0.87;;;;;;;7.15;100.00;99733.56;7396721;19;20422;-42
2023/12/26 01:56:42;;;;;;;5.67;0.93;;;;;;;7.19;100.00;99714.03;7373022;19;21014;-41
2023/12/26 01:59:12;;;;;;;3.00;1.03;;;;;;;7.20;100.00;99709.75;7395666;19;20414;-40
2023/12/26 02:01:42;;;;;;;3.13;1.10;;;;;;;7.19;100.00;99711.47;7373167;19;20435;-42
2023/12/26 02:04:15;;;;;;;6.23;1.23;;;;;;;7.20;100.00;99709.75;7396116;19;20442;-40
2023/12/26 02:06:45;;;;;;;5.13;1.67;;;;;;;7.21;100.00;99703.81;7374070;19;20433;-39
2023/12/26 02:09:15;;;;;;;2.77;1.20;;;;;;;7.22;100.00;99703.03;7395660;19;20979;-39
2023/12/26 02:11:45;;;;;;;2.70;1.20;;;;;;;7.23;100.00;99697.06;7373927;19;20425;-43
2023/12/26 02:14:14;;;;;;;3.93;1.37;;;;;;;7.27;100.00;99694.66;7396018;19;20947;-39
2023/12/26 02:16:46;;;;;;;2.00;0.87;;;;;;;7.29;100.00;99687.03;7372432;19;21019;-39
2023/12/26 02:19:20;;;;;;;3.20;0.90;;;;;;;7.29;100.00;99687.03;7398076;19;20432;-40
2023/12/26 02:21:50;;;;;;;1.40;1.00;;;;;;;7.32;100.00;99687.13;7373141;19;20415;-39
2023/12/26 02:24:22;;;;;;;1.30;0.83;;;;;;;7.34;100.00;99693.19;7396574;19;20468;-41
2023/12/26 02:26:55;;;;;;;1.30;0.77;;;;;;;7.36;100.00;99689.00;7372416;19;20420;-40
2023/12/26 02:29:27;;;;;;;4.03;1.70;;;;;;;7.37;100.00;99697.56;7397128;19;20404;-42
2023/12/26 02:31:57;;;;;;;3.03;1.33;;;;;;;7.39;100.00;99691.69;7372602;19;20507;-40
2023/12/26 02:34:27;;;;;;;1.90;1.13;;;;;;;7.38;100.00;99697.63;7395511;19;20844;-40
2023/12/26 02:36:57;;;;;;;2.10;1.20;;;;;;;7.40;100.00;99701.13;7370402;19;20423;-40
2023/12/26 02:39:30;;;;;;;1.80;1.00;;;;;;;7.37;100.00;99706.16;7397481;19;20785;-41
2023/12/26 02:41:59;;;;;;;2.87;1.00;;;;;;;7.38;100.00;99704.47;7373113;19;20427;-40
2023/12/26 02:44:29;;;;;;;1.20;0.57;;;;;;;7.38;100.00;99699.34;7396420;19;20480;-40
2023/12/26 02:46:59;;;;;;;2.27;0.97;;;;;;;7.36;100.00;99698.38;7365408;19;20415;-39
2023/12/26 02:49:29;;;;;;;1.63;0.83;;;;;;;7.37;100.00;99687.31;7395362;19;20412;-39
2023/12/26 02:51:59;;;;;;;1.50;0.60;;;;;;;7.38;100.00;99704.47;7371868;19;20455;-39
2023/12/26 02:54:31;;;;;;;2.73;0.77;;;;;;;7.35;100.00;99694.97;7395575;19;20435;-40
2023/12/26 02:57:01;;;;;;;1.87;0.70;;;;;;;7.34;100.00;99700.03;7372279;19;21105;-41
2023/12/26 02:59:31;;;;;;;1.63;0.90;;;;;;;7.32;100.00;99683.72;7395202;19;20434;-41
2023/12/26 03:02:01;;;;;;;1.90;1.03;;;;;;;7.32;100.00;99646.09;7371640;19;20431;-42
2023/12/26 03:04:31;;;;;;;3.20;1.10;;;;;;;7.29;100.00;99653.69;7395187;19;20499;-39
2023/12/26 03:07:00;;;;;;;1.93;0.80;;;;;;;7.27;100.00;99663.00;7370936;19;20419;-42
2023/12/26 03:09:33;;;;;;;1.33;0.73;;;;;;;7.29;100.00;99666.50;7395192;19;20495;-42
2023/12/26 03:12:03;;;;;;;3.60;1.27;;;;;;;7.30;100.00;99655.41;7370913;19;20951;-44
2023/12/26 03:14:33;;;;;;;1.87;0.83;;;;;;;7.29;100.00;99662.22;7395374;19;20439;-42
2023/12/26 03:17:03;;;;;;;2.67;0.90;;;;;;;7.30;100.00;99658.84;7367982;19;20444;-41
2023/12/26 03:19:33;;;;;;;2.90;0.70;;;;;;;7.27;100.00;99658.75;7394203;19;20404;-42
2023/12/26 03:22:03;;;;;;;2.10;1.03;;;;;;;7.29;100.00;99669.06;7366681;19;20458;-42
2023/12/26 03:24:35;;;;;;;1.50;0.67;;;;;;;7.29;100.00;99658.81;7394341;19;20444;-41
2023/12/26 03:27:07;;;;;;;8.80;1.10;;;;;;;7.35;100.00;99658.16;7371070;19;20542;-40
2023/12/26 03:29:38;;;;;;;1.30;0.60;;;;;;;7.37;100.00;99647.13;7392941;19;20493;-41
2023/12/26 03:32:09;;;;;;;2.60;1.00;;;;;;;7.35;100.00;99656.47;7370516;19;20429;-40
2023/12/26 03:34:40;;;;;;;1.80;0.90;;;;;;;7.36;100.00;99662.47;7393140;19;20464;-42
2023/12/26 03:37:10;;;;;;;2.00;0.93;;;;;;;7.36;100.00;99678.75;7369051;19;20419;-41
2023/12/26 03:39:42;;;;;;;3.93;1.27;;;;;;;7.37;100.00;99680.50;7392927;19;20419;-41
2023/12/26 03:42:12;;;;;;;2.57;1.00;;;;;;;7.40;100.00;99690.84;7369604;19;20443;-38
2023/12/26 03:44:43;;;;;;;1.70;1.17;;;;;;;7.42;100.00;99704.66;7393104;19;20471;-39
2023/12/26 03:47:13;;;;;;;2.27;1.30;;;;;;;7.41;100.00;99710.59;7368167;19;21051;-40
2023/12/26 03:49:44;;;;;;;3.20;1.20;;;;;;;7.39;100.00;99714.78;7393632;19;20407;-40
2023/12/26 03:52:14;;;;;;;2.60;1.43;;;;;;;7.40;100.00;99746.47;7369938;19;20423;-39
2023/12/26 03:54:46;;;;;;;3.47;1.30;;;;;;;7.41;100.00;99748.19;7393176;19;20612;-41
2023/12/26 03:57:16;;;;;;;3.00;1.23;;;;;;;7.39;100.00;99752.41;7370842;19;21007;-39
2023/12/26 03:59:46;;;;;;;5.10;1.00;;;;;;;7.39;100.00;99765.25;7392061;19;20404;-38
2023/12/26 04:02:16;;;;;;;2.70;1.53;;;;;;;7.39;100.00;99784.06;7369299;19;20440;-39
2023/12/26 04:04:46;;;;;;;5.00;1.63;;;;;;;7.40;100.00;99780.69;7392470;19;20502;-38
2023/12/26 04:07:16;;;;;;;3.63;1.23;;;;;;;7.39;100.00;99791.75;7369578;19;20431;-38
2023/12/26 04:09:48;;;;;;;1.60;1.10;;;;;;;7.37;100.00;99798.53;7393124;19;20435;-38
2023/12/26 04:12:18;;;;;;;1.50;0.70;;;;;;;7.41;100.00;99815.81;7369879;19;20427;-40
2023/12/26 04:14:48;;;;;;;1.50;0.97;;;;;;;7.43;100.00;99832.16;7392638;19;20818;-41
2023/12/26 04:17:19;;;;;;;6.40;1.37;;;;;;;7.46;100.00;99854.50;7368990;19;20502;-43
2023/12/26 04:19:49;;;;;;;2.03;1.23;;;;;;;7.46;100.00;99841.66;7393205;19;20414;-39
2023/12/26 04:22:19;;;;;;;3.43;0.90;;;;;;;7.46;100.00;99869.91;7369242;19;20815;-39
2023/12/26 04:24:52;;;;;;;5.80;2.03;;;;;;;7.48;100.00;99911.03;7391499;19;20983;-38
2023/12/26 04:27:22;;;;;;;4.20;1.30;;;;;;;7.46;100.00;99930.59;7369096;19;20900;-40
2023/12/26 04:29:53;;;;;;;3.63;0.73;;;;;;;7.47;100.00;99968.28;7392286;19;20395;-41
2023/12/26 04:32:23;;;;;;;1.60;0.90;;;;;;;7.48;100.00;99991.47;7369263;19;20419;-39
2023/12/26 04:34:53;;;;;;;2.80;1.20;;;;;;;7.55;100.00;100008.03;7393528;19;20447;-40
2023/12/26 04:37:26;;;;;;;6.37;2.43;;;;;;;7.49;100.00;100024.03;7366039;19;20507;-42
2023/12/26 04:39:58;;;;;;;6.13;1.37;;;;;;;7.48;100.00;100047.06;7392508;19;20412;-41
2023/12/26 04:42:28;;;;;;;5.47;1.60;;;;;;;7.47;100.00;100061.59;7369004;19;20427;-39
2023/12/26 04:44:58;;;;;;;3.80;1.47;;;;;;;7.49;100.00;100053.97;7392124;19;20519;-42
2023/12/26 04:47:28;;;;;;;9.73;1.73;;;;;;;7.46;100.00;100049.56;7367640;19;20959;-38
2023/12/26 04:49:58;;;;;;;6.67;1.60;;;;;;;7.43;100.00;100040.06;7393133;19;20410;-41
2023/12/26 04:52:28;;;;;;;8.07;1.10;;;;;;;7.36;100.00;100053.44;7369181;19;21033;-39
2023/12/26 04:55:00;;;;;;;15.83;2.80;;;;;;;7.35;100.00;100033.72;7391819;19;20455;-39
2023/12/26 04:57:31;;;;;;;20.20;2.90;;;;;;;7.34;100.00;99992.59;7368499;19;20466;-40
2023/12/26 05:00:01;;;;;;;6.43;1.20;;;;;;;7.29;100.00;99959.03;7397467;19;20403;-39
2023/12/26 05:02:31;;;;;;;4.30;1.33;;;;;;;7.26;100.00;99897.31;7374182;19;20423;-40
2023/12/26 05:05:01;;;;;;;12.30;2.00;;;;;;;7.23;100.00;99861.28;7396077;19;21088;-39
2023/12/26 05:07:30;;;;;;;6.93;1.40;;;;;;;7.17;100.00;99820.81;7375416;19;20423;-39
2023/12/26 05:10:03;;;;;;;7.27;1.63;;;;;;;7.15;100.00;99751.53;7398060;19;20742;-39
2023/12/26 05:12:33;;;;;;;13.70;1.87;;;;;;;7.11;100.00;99735.94;7376218;19;20521;-39
2023/12/26 05:15:03;;;;;;;9.47;1.50;;;;;;;7.07;100.00;99693.03;7397874;19;20457;-43
2023/12/26 05:17:33;;;;;;;2.70;1.03;;;;;;;7.02;100.00;99682.56;7375464;19;20954;-39
2023/12/26 05:20:03;;;;;;;8.97;1.53;;;;;;;7.05;100.00;99666.44;7397940;19;20758;-39
2023/12/26 05:22:49;;;;;;;9.30;2.10;;;;;;;7.09;100.00;99637.53;7376004;19;20845;-38
2023/12/26 05:25:23;;;;;;;11.23;1.70;;;;;;;6.99;100.00;99638.88;7398240;19;20468;-41
2023/12/26 05:27:53;;;;;;;11.13;1.70;;;;;;;6.99;100.00;99637.16;7375425;19;20427;-39
2023/12/26 05:30:23;;;;;;;13.33;1.90;;;;;;;6.96;100.00;99641.31;7398256;19;20439;-41
2023/12/26 05:32:53;;;;;;;12.83;2.40;;;;;;;6.95;100.00;99649.81;7373797;19;20434;-41
2023/12/26 05:35:23;;;;;;;20.27;2.20;;;;;;;6.93;100.00;99651.47;7398437;19;20467;-40
2023/12/26 05:37:53;;;;;;;7.27;1.57;;;;;;;6.97;100.00;99653.34;7372742;19;20514;-39
2023/12/26 05:40:26;;;;;;;12.90;1.93;;;;;;;6.94;100.00;99654.09;7397976;19;20510;-40
2023/12/26 05:42:56;;;;;;;9.73;1.93;;;;;;;6.93;100.00;99651.47;7374503;19;20467;-40
2023/12/26 05:45:26;;;;;;;11.30;1.43;;;;;;;6.90;100.00;99652.22;7397179;19;20453;-42
2023/12/26 05:47:56;;;;;;;18.07;1.83;;;;;;;6.88;100.00;99659.84;7374206;19;20454;-43
2023/12/26 05:50:26;;;;;;;8.43;1.63;;;;;;;6.86;100.00;99681.97;7397389;19;20407;-39
2023/12/26 05:52:56;;;;;;;10.33;2.20;;;;;;;6.86;100.00;99689.69;7375035;19;20450;-38
2023/12/26 05:55:28;;;;;;;13.67;2.20;;;;;;;6.86;100.00;99684.56;7397381;19;21022;-39
2023/12/26 05:57:58;;;;;;;6.40;0.93;;;;;;;6.85;100.00;99687.03;7375300;19;21371;-42
2023/12/26 06:00:29;;;;;;;13.13;2.47;;;;;;;6.85;100.00;99708.44;7391441;19;20938;-38
2023/12/26 06:02:59;;;;;;;6.87;1.67;;;;;;;6.88;100.00;99715.38;7398851;19;20437;-38
2023/12/26 06:05:29;;;;;;;11.03;1.90;;;;;;;6.87;100.00;99722.19;7391313;19;20443;-37
2023/12/26 06:07:59;;;;;;;11.07;1.27;;;;;;;6.87;100.00;99709.38;7396474;19;20419;-40
2023/12/26 06:10:31;;;;;;;15.47;3.20;;;;;;;6.85;100.00;99716.13;7393521;19;20428;-38
2023/12/26 06:13:01;;;;;;;4.67;2.20;;;;;;;6.80;100.00;99702.25;7396423;19;20407;-39
2023/12/26 06:15:31;;;;;;;6.17;1.50;;;;;;;6.81;100.00;99696.31;7375195;19;20454;-39
2023/12/26 06:18:00;;;;;;;10.50;1.90;;;;;;;6.82;100.00;99689.50;7394014;19;20487;-40
2023/12/26 06:20:30;;;;;;;14.63;2.57;;;;;;;6.81;100.00;99700.56;7374653;19;20435;-39
2023/12/26 06:23:00;;;;;;;12.90;2.00;;;;;;;6.81;100.00;99687.75;7394416;19;20948;-40
2023/12/26 06:25:33;;;;;;;12.67;2.00;;;;;;;6.81;100.00;99682.63;7374924;19;21003;-42
2023/12/26 06:28:03;;;;;;;17.03;3.07;;;;;;;6.79;100.00;99672.31;7395637;19;20432;-40
2023/12/26 06:30:33;;;;;;;14.50;2.60;;;;;;;6.77;100.00;99661.09;7374273;19;20431;-42
2023/12/26 06:33:03;;;;;;;11.87;3.13;;;;;;;6.77;100.00;99666.22;7392683;19;20404;-40
2023/12/26 06:35:33;;;;;;;6.60;1.17;;;;;;;6.75;100.00;99665.28;7374714;19;20439;-40
2023/12/26 06:38:10;;;;;;;13.50;2.17;;;;;;;6.79;100.00;99658.59;7390743;19;20478;-42
2023/12/26 06:40:43;;;;;;;7.93;2.83;;;;;;;6.75;100.00;99660.16;7375885;19;20436;-40
2023/12/26 06:43:14;;;;;;;22.37;2.97;;;;;;;6.77;100.00;99655.09;7394050;19;20416;-41
2023/12/26 06:45:44;;;;;;;17.80;2.33;;;;;;;6.85;100.00;99656.28;7372887;19;20467;-41
2023/12/26 06:48:14;;;;;;;12.20;2.10;;;;;;;6.85;100.00;99646.00;7393397;19;20420;-40
2023/12/26 06:50:44;;;;;;;2.53;1.13;;;;;;;6.87;100.00;99642.69;7371713;19;21024;-41
2023/12/26 06:53:13;;;;;;;21.00;3.20;;;;;;;6.86;100.00;99646.09;7394014;19;20801;-42
2023/12/26 06:55:46;;;;;;;17.00;3.70;;;;;;;6.87;100.00;99654.66;7371954;19;20460;-43
2023/12/26 06:58:16;;;;;;;13.07;2.40;;;;;;;6.87;100.00;99646.97;7392757;19;20404;-40
2023/12/26 07:00:46;;;;;;;23.53;2.47;;;;;;;6.87;100.00;99637.56;7372088;19;20408;-41
2023/12/26 07:03:17;;;;;;;12.17;2.30;;;;;;;6.89;100.00;99651.31;7395539;19;20950;-40
2023/12/26 07:05:47;;;;;;;11.73;2.13;;;;;;;6.84;100.00;99665.69;7371852;19;21021;-41
2023/12/26 07:08:17;;;;;;;15.30;2.00;;;;;;;6.87;100.00;99665.78;7393274;19;20399;-40
2023/12/26 07:10:50;;;;;;;6.03;1.10;;;;;;;6.91;100.00;99671.03;7371818;19;20471;-40
2023/12/26 07:13:20;;;;;;;10.53;2.70;;;;;;;6.95;100.00;99665.19;7394371;19;20411;-40
2023/12/26 07:15:51;;;;;;;13.33;1.83;;;;;;;6.94;100.00;99668.59;7371187;19;20388;-40
2023/12/26 07:18:21;;;;;;;13.60;2.87;;;;;;;6.92;100.00;99663.38;7393499;19;20415;-41
2023/12/26 07:20:51;;;;;;;10.10;1.83;;;;;;;6.91;100.00;99663.34;7370718;19;20415;-40
2023/12/26 07:23:21;;;;;;;13.10;1.80;;;;;;;6.93;100.00;99656.59;7393810;19;20516;-40
2023/12/26 07:25:53;;;;;;;10.00;1.80;;;;;;;6.89;100.00;99651.31;7369313;19;21003;-40
2023/12/26 07:28:24;;;;;;;6.23;1.20;;;;;;;6.93;100.00;99667.72;7392455;19;20411;-40
2023/12/26 07:30:53;;;;;;;6.83;1.20;;;;;;;6.93;100.00;99666.84;7371876;19;20395;-41
2023/12/26 07:33:24;;;;;;;11.60;2.33;;;;;;;6.89;100.00;99671.84;7393903;19;20414;-40
2023/12/26 07:35:57;;;;;;;11.07;1.60;;;;;;;6.88;100.00;99690.59;7371123;19;20458;-40
2023/12/26 07:38:27;;;;;;;12.63;2.23;;;;;;;6.89;100.00;99682.09;7391129;19;20399;-40
2023/12/26 07:41:00;;;;;;;12.43;2.10;;;;;;;6.93;100.00;99703.63;7368958;19;20399;-39
2023/12/26 07:43:30;;;;;;;5.97;2.50;;;;;;;6.90;100.00;99700.94;7393035;19;20436;-40
2023/12/26 07:46:00;;;;;;;9.80;1.97;;;;;;;6.92;100.00;99695.88;7369054;19;20399;-39
2023/12/26 07:48:30;;;;;;;6.67;1.30;;;;;;;6.91;100.00;99694.97;7392945;19;20412;-40
2023/12/26 07:51:00;;;;;;;7.23;0.90;;;;;;;6.91;100.00;99699.25;7370564;19;20402;-40
2023/12/26 07:53:30;;;;;;;9.90;1.80;;;;;;;6.94;100.00;99697.69;7393732;19;20399;-40
2023/12/26 07:56:02;;;;;;;7.70;1.67;;;;;;;6.93;100.00;99698.50;7370583;19;20398;-40
2023/12/26 07:58:34;;;;;;;12.73;1.73;;;;;;;6.92;100.00;99713.81;7393454;19;20415;-40
2023/12/26 08:01:04;;;;;;;9.50;1.40;;;;;;;6.88;100.00;99716.25;7366045;19;20432;-40
2023/12/26 08:03:34;;;;;;;14.50;3.27;;;;;;;6.94;100.00;99730.13;7387431;19;20415;-39
2023/12/26 08:06:05;;;;;;;38.60;13.97;;;;;;;7.05;100.00;99751.97;7370032;19;20399;-40
2023/12/26 08:08:35;;;;;;;57.70;16.43;;;;;;;7.20;100.00;99748.25;7388884;19;20407;-40
2023/12/26 08:11:07;;;;;;;14.40;2.80;;;;;;;7.19;100.00;99746.50;7369974;19;20403;-39
2023/12/26 08:13:37;;;;;;;25.70;7.20;;;;;;;7.10;100.00;99752.13;7393476;19;20420;-40
2023/12/26 08:16:07;;;;;;;11.30;2.23;;;;;;;6.90;100.00;99767.59;7368727;19;20455;-40
2023/12/26 08:18:37;;;;;;;13.57;2.23;;;;;;;6.76;100.00;99815.75;7391913;19;20411;-39
2023/12/26 08:21:07;;;;;;;9.10;2.90;;;;;;;6.71;100.00;99842.88;7369707;19;20444;-40
2023/12/26 08:23:37;;;;;;;8.43;1.97;;;;;;;6.71;100.00;99860.81;7391945;19;20403;-42
2023/12/26 08:26:11;;;;;;;12.10;3.27;;;;;;;6.84;100.00;99872.47;7369713;19;20457;-41
2023/12/26 08:28:41;;;;;;;30.00;9.30;;;;;;;6.99;100.00;99831.22;7393378;19;20427;-41
2023/12/26 08:31:11;;;;;;;20.90;3.53;;;;;;;6.97;100.00;99825.16;7368201;19;20416;-40
2023/12/26 08:33:41;;;;;;;18.73;5.87;;;;;;;7.04;100.00;99816.91;7393902;19;20410;-41
2023/12/26 08:36:11;;;;;;;18.37;5.33;;;;;;;7.05;100.00;99800.69;7376296;19;20813;-40
2023/12/26 08:38:42;;;;;;;9.63;2.17;;;;;;;7.00;100.00;99787.69;7398037;19;20411;-39
2023/12/26 08:41:15;;;;;;;7.20;2.53;;;;;;;7.01;100.00;99802.25;7376378;19;20514;-40
2023/12/26 08:43:44;;;;;;;12.90;3.90;;;;;;;7.02;100.00;99790.28;7398141;19;20478;-41
2023/12/26 08:46:14;;;;;;;19.33;5.23;;;;;;;7.08;100.00;99772.59;7373605;19;20793;-39
2023/12/26 08:48:44;;;;;;;22.67;3.03;;;;;;;6.96;100.00;99790.03;7396510;19;20479;-38
2023/12/26 08:51:14;;;;;;;8.73;2.40;;;;;;;7.08;100.00;99766.59;7375874;19;20429;-40
2023/12/26 08:53:44;;;;;;;13.73;3.17;;;;;;;7.20;100.00;99771.34;7396883;19;20430;-41
2023/12/26 08:56:20;;;;;;;5.47;1.27;;;;;;;7.03;100.00;99769.00;7373976;19;20410;-41
2023/12/26 08:58:50;;;;;;;10.40;2.47;;;;;;;6.99;100.00;99774.78;7397644;19;20403;-38
2023/12/26 09:01:19;;;;;;;8.20;1.60;;;;;;;6.89;100.00;99774.41;7375502;19;20395;-42
2023/12/26 09:03:49;;;;;;;13.27;1.63;;;;;;;6.88;100.00;99779.50;7396881;19;20444;-41
2023/12/26 09:06:19;;;;;;;8.73;1.90;;;;;;;6.88;100.00;99792.31;7375212;19;20419;-40
2023/12/26 09:08:49;;;;;;;7.97;2.47;;;;;;;6.86;100.00;99787.13;7391023;19;20418;-41
2023/12/26 09:11:22;;;;;;;4.37;1.60;;;;;;;6.81;100.00;99821.94;7374185;19;20403;-41
2023/12/26 09:13:52;;;;;;;3.47;1.33;;;;;;;6.79;100.00;99838.06;7396800;19;20408;-41
2023/12/26 09:16:22;;;;;;;15.37;1.60;;;;;;;6.74;100.00;99843.00;7374665;19;20439;-42
2023/12/26 09:18:52;;;;;;;12.23;2.33;;;;;;;6.70;100.00;99843.69;7395872;19;20407;-41
2023/12/26 09:21:22;;;;;;;17.40;1.83;;;;;;;6.70;100.00;99861.63;7375448;19;20780;-40
2023/12/26 09:23:52;;;;;;;8.80;2.20;;;;;;;6.73;100.00;99861.78;7399252;19;20403;-43
2023/12/26 09:26:24;;;;;;;5.30;1.97;;;;;;;6.74;100.00;99877.22;7374580;19;20403;-42
2023/12/26 09:28:54;;;;;;;11.57;2.00;;;;;;;6.76;100.00;99874.72;7398703;19;20434;-43
2023/12/26 09:31:24;;;;;;;8.20;1.57;;;;;;;6.81;100.00;99878.34;7374566;19;20891;-41
2023/12/26 09:33:54;;;;;;;10.77;1.93;;;;;;;6.79;100.00;99877.41;7396557;19;20408;-42
2023/12/26 09:36:24;;;;;;;7.83;1.47;;;;;;;6.81;100.00;99887.75;7374560;19;20402;-41
2023/12/26 09:38:54;;;;;;;9.67;1.83;;;;;;;6.78;100.00;99880.81;7395792;19;20404;-43
2023/12/26 09:41:27;;;;;;;2.27;0.80;;;;;;;6.79;100.00;99892.81;7375975;19;20423;-42
2023/12/26 09:43:57;;;;;;;10.03;2.17;;;;;;;6.82;100.00;99887.78;7397202;19;20399;-40
2023/12/26 09:46:28;;;;;;;8.63;1.73;;;;;;;6.82;100.00;99872.41;7373110;19;20432;-42
2023/12/26 09:48:58;;;;;;;5.10;1.73;;;;;;;6.84;100.00;99888.75;7395532;19;20408;-41
2023/12/26 09:51:46;;;;;;;10.97;2.90;;;;;;;6.83;100.00;99881.84;7372833;19;20443;-42
2023/12/26 09:54:18;;;;;;;8.83;1.27;;;;;;;6.86;100.00;99871.75;7397389;19;20403;-41
2023/12/26 09:56:50;;;;;;;8.07;1.63;;;;;;;6.79;100.00;99882.56;7372619;19;20419;-41
2023/12/26 09:59:21;;;;;;;2.57;0.73;;;;;;;6.74;100.00;99866.97;7396202;19;20415;-40
2023/12/26 10:01:51;;;;;;;9.97;1.57;;;;;;;6.74;100.00;99877.22;7372748;19;20436;-43
2023/12/26 10:04:22;;;;;;;11.03;1.63;;;;;;;6.71;100.00;99887.34;7396398;19;20482;-42
2023/12/26 10:06:52;;;;;;;3.73;1.20;;;;;;;6.64;100.00;99904.94;7372690;19;20426;-42
2023/12/26 10:09:22;;;;;;;7.83;1.80;;;;;;;6.60;100.00;99920.19;7392642;19;20490;-42
2023/12/26 10:11:57;;;;;;;4.57;1.50;;;;;;;6.41;100.00;99985.09;7370674;19;20423;-43
2023/12/26 10:14:31;;;;;;;1.93;0.60;;;;;;;6.25;100.00;100033.91;7396607;19;21023;-41
2023/12/26 10:17:01;;;;;;;8.57;2.10;;;;;;;6.18;100.00;100101.88;7373828;19;20418;-41
2023/12/26 10:19:31;;;;;;;6.07;1.30;;;;;;;6.15;100.00;100178.59;7398776;19;20927;-42
2023/12/26 10:22:01;;;;;;;17.20;1.90;;;;;;;6.18;100.00;100253.03;7372989;19;20829;-41
2023/12/26 10:24:32;;;;;;;15.23;2.63;;;;;;;6.22;100.00;100290.81;7396403;19;20419;-42
2023/12/26 10:27:05;;;;;;;10.63;1.53;;;;;;;6.29;100.00;100295.44;7372384;19;21244;-42
2023/12/26 10:29:34;;;;;;;9.40;2.13;;;;;;;6.31;100.00;100316.91;7395761;19;20422;-41
2023/12/26 10:32:04;;;;;;;8.43;1.40;;;;;;;6.45;100.00;100273.16;7372556;19;20427;-43
2023/12/26 10:34:34;;;;;;;13.57;2.03;;;;;;;6.48;100.00;100255.38;7397051;19;20509;-41
2023/12/26 10:37:04;;;;;;;14.40;2.00;;;;;;;6.45;100.00;100229.59;7372315;19;20425;-44
2023/12/26 10:39:36;;;;;;;7.80;1.40;;;;;;;6.48;100.00;100211.81;7396184;19;20448;-41
2023/12/26 10:42:09;;;;;;;7.37;0.70;;;;;;;6.52;100.00;100184.66;7371890;19;20423;-42
2023/12/26 10:44:56;;;;;;;4.67;1.13;;;;;;;6.54;100.00;100160.84;7398038;19;20441;-44
2023/12/26 10:47:27;;;;;;;5.30;1.87;;;;;;;6.57;100.00;100129.38;7371340;19;20427;-41
2023/12/26 10:49:59;;;;;;;12.83;1.80;;;;;;;6.68;100.00;100083.72;7395621;19;20408;-42
2023/12/26 10:52:30;;;;;;;11.87;3.17;;;;;;;6.69;100.00;100059.84;7372214;19;20439;-41
2023/12/26 10:55:01;;;;;;;8.53;1.63;;;;;;;6.67;100.00;100028.13;7394696;19;20996;-41
2023/12/26 10:57:40;;;;;;;5.17;1.27;;;;;;;6.64;100.00;100013.50;7370673;19;20434;-42
2023/12/26 13:53:29;;;;;;;8.90;1.20;;;;;;;4.58;100.00;100611.53;7376031;19;20434;-42
2023/12/26 13:55:56;;;;;;;3.00;0.80;;;;;;;4.61;100.00;100562.28;7374231;19;20443;-42
2023/12/26 13:58:25;;;;;;;4.80;1.20;;;;;;;4.59;100.00;100535.78;7396239;19;20399;-41
2023/12/26 14:00:54;;;;;;;2.90;0.70;;;;;;;4.58;100.00;100503.34;7373694;19;20387;-42
2023/12/26 14:03:24;;;;;;;1.93;1.10;;;;;;;4.58;100.00;100472.69;7391885;19;20395;-42
2023/12/26 14:05:53;;;;;;;3.80;1.40;;;;;;;4.56;100.00;100451.28;7371647;19;20446;-41
2023/12/26 14:08:23;;;;;;;2.70;1.00;;;;;;;4.55;100.00;100457.13;7389476;19;20436;-41
2023/12/26 14:10:55;;;;;;;10.93;1.33;;;;;;;4.54;100.00;100450.28;7373769;19;20419;-42
2023/12/26 14:13:22;;;;;;;4.70;1.53;;;;;;;4.52;100.00;100444.19;7395342;19;20406;-41
2023/12/26 14:15:52;;;;;;;2.83;1.33;;;;;;;4.52;100.00;100454.41;7372743;19;20406;-41
2023/12/26 14:18:21;;;;;;;3.60;0.70;;;;;;;4.48;100.00;100455.91;7395795;19;20407;-41
2023/12/26 14:20:51;;;;;;;5.37;0.90;;;;;;;4.49;100.00;100462.78;7370724;19;20474;-43
2023/12/26 14:23:21;;;;;;;4.43;1.00;;;;;;;4.48;100.00;100463.56;7392054;19;20383;-40
2023/12/26 14:25:50;;;;;;;2.47;0.73;;;;;;;4.53;100.00;100463.84;7370627;19;20403;-41
2023/12/26 14:28:22;;;;;;;11.37;3.20;;;;;;;4.52;100.00;100465.50;7394201;19;20391;-44
2023/12/26 14:30:52;;;;;;;4.67;1.93;;;;;;;4.52;100.00;100485.94;7368360;19;20388;-44
2023/12/26 14:33:22;;;;;;;9.00;1.63;;;;;;;4.54;100.00;100475.81;7393686;19;20931;-43
2023/12/26 14:35:52;;;;;;;2.43;0.80;;;;;;;4.50;100.00;100472.19;7370858;19;20406;-41
2023/12/26 14:38:22;;;;;;;13.07;1.60;;;;;;;4.50;100.00;100479.00;7390806;19;20607;-40